PDT,Max TemperatureF,Mean TemperatureF,Min TemperatureF,Max Dew PointF,MeanDew PointF,Min DewpointF,Max Humidity, Mean Humidity, Min Humidity, Max Sea Level PressureIn, Mean Sea Level PressureIn, Min Sea Level PressureIn, Max VisibilityMiles, Mean VisibilityMiles, Min VisibilityMiles, Max Wind SpeedMPH, Mean Wind SpeedMPH, Max Gust SpeedMPH,PrecipitationIn, CloudCover, Events, WindDirDegrees
2013-8-1,70,63,56,59,52,45,82,57,24,29.93,29.88,29.78,10,8,1,33,10,39,0.07,3,Rain,295
2013-8-2,61,58,55,55,51,48,83,57,36,30.04,29.96,29.91,10,10,10,20,12,,0.33,6,Rain,304
2013-8-3,75,64,53,57,53,48,65,54,42,30.09,30.03,29.97,10,10,10,12,8,16,T,5,,17
2013-8-4,84,67,49,60,55,51,79,56,28,30.03,29.96,29.87,10,10,8,13,5,23,0.00,1,Rain,331
2013-8-5,88,70,51,61,54,42,84,51,18,29.96,29.89,29.79,10,10,10,14,6,,T,1,,270
2013-8-6,90,72,54,50,47,40,60,33,20,29.92,29.86,29.78,10,10,10,10,8,,0.00,0,,285
2013-8-7,91,73,54,47,42,36,41,27,13,29.91,29.85,29.78,10,10,10,16,9,,0.00,0,,282
2013-8-8,91,72,53,56,47,38,46,32,14,29.90,29.85,29.78,10,10,9,14,9,,0.00,0,,320
2013-8-9,91,73,54,60,53,45,65,40,18,29.87,29.79,29.69,10,10,10,13,8,,T,0,,279
2013-8-10,91,77,63,61,56,45,79,50,21,29.94,29.86,29.78,10,10,6,20,11,26,0.04,2,Rain,291
2013-8-11,86,72,58,61,57,53,80,59,35,29.98,29.92,29.84,10,10,10,18,10,32,0.24,1,Rain,309
2013-8-12,88,75,61,55,53,49,73,50,26,29.99,29.93,29.85,10,10,10,14,8,20,0.00,0,,311
2013-8-13,88,72,55,54,51,46,70,44,25,30.01,29.94,29.88,10,10,10,14,8,,0.00,0,,56
2013-8-14,91,73,54,52,50,43,72,42,21,29.92,29.87,29.79,10,10,10,16,7,,0.00,0,,291
2013-8-15,86,78,69,56,53,48,57,45,32,29.91,29.87,29.84,10,10,10,23,9,29,0.00,0,,312
2013-8-16,88,73,58,53,51,48,65,48,30,29.98,29.93,29.87,10,10,10,10,7,,0.00,0,,322
2013-8-17,88,71,54,53,48,43,59,40,24,29.96,29.93,29.89,10,10,10,17,8,,0.00,0,,301
2013-8-18,84,69,53,50,47,39,60,40,18,30.03,29.97,29.91,10,10,10,16,8,,0.00,0,,303
2013-8-19,84,69,54,49,46,41,58,39,24,29.98,29.96,29.93,10,10,10,23,14,28,0.00,0,,300
2013-8-20,82,66,49,48,42,33,62,36,19,30.05,29.99,29.92,10,10,5,14,8,,0.00,0,,302
2013-8-21,86,65,44,47,43,36,65,38,17,30.09,30.00,29.90,10,10,10,12,7,,0.00,0,,300
2013-8-22,89,74,59,52,45,38,56,36,16,29.94,29.85,29.73,10,10,7,18,5,20,0.00,0,,304
2013-8-23,91,69,47,56,51,46,63,44,28,29.79,29.75,29.71,10,10,8,13,7,,0.00,2,Rain,305
2013-8-24,82,72,62,49,46,44,56,41,26,29.81,29.77,29.71,10,10,10,18,9,23,0.00,0,,315
2013-8-25,82,69,56,57,47,41,78,48,29,29.89,29.83,29.76,10,10,10,15,8,,0.21,2,Rain,310
2013-8-26,77,67,56,56,54,50,86,64,41,29.91,29.87,29.82,10,10,10,20,7,28,T,2,,81
2013-8-27,83,71,58,53,51,50,75,55,34,29.94,29.86,29.75,10,10,10,13,7,17,0.00,1,,348
2013-8-28,86,69,51,58,53,49,75,52,29,29.86,29.81,29.77,10,10,10,14,8,,0.00,1,,302
2013-8-29,81,73,64,61,56,51,73,56,39,29.98,29.90,29.84,10,10,9,31,9,37,0.04,1,Rain,310
2013-8-30,82,70,58,57,50,42,87,57,26,30.09,30.04,29.98,10,10,10,17,7,22,0.00,0,,313
2013-8-31,84,63,41,53,47,43,75,47,23,30.09,29.98,29.86,10,10,10,10,7,,0.00,0,,290